createdAt,value
2019-05-21T00:01:01.125Z,27.15
2019-05-21T00:02:02.161Z,20.80
2019-05-21T00:03:03.313Z,21.80
2019-05-21T00:04:04.486Z,21.07
2019-05-21T00:05:05.824Z,19.92
2019-05-21T00:06:06.839Z,21.95
2019-05-21T00:07:07.855Z,18.92
2019-05-21T00:08:09.239Z,22.40
2019-05-21T00:09:10.388Z,18.85
2019-05-21T00:10:31.333Z,16.30
2019-05-21T00:11:32.348Z,15.65
2019-05-21T00:12:33.498Z,20.88
2019-05-21T00:13:34.577Z,18.23
2019-05-21T00:14:35.709Z,20.85
2019-05-21T00:15:36.725Z,22.13
2019-05-21T00:16:37.853Z,18.98
2019-05-21T00:17:38.943Z,20.97
2019-05-21T00:18:39.987Z,22.98
2019-05-21T00:19:40.991Z,21.80
2019-05-21T00:20:42.035Z,21.45
2019-05-21T00:21:43.183Z,20.92
2019-05-21T00:22:44.180Z,18.23
2019-05-21T00:23:45.192Z,25.52
2019-05-21T00:24:46.277Z,19.20
2019-05-21T00:25:47.348Z,28.07
2019-05-21T00:26:48.363Z,24.43
2019-05-21T00:27:49.384Z,28.47
2019-05-21T00:29:27.808Z,20.50
2019-05-21T00:31:06.473Z,19.75
2019-05-21T00:32:45.212Z,21.65
2019-05-21T00:34:24.151Z,22.07
2019-05-21T00:36:02.487Z,23.65
2019-05-21T00:37:40.992Z,23.00
2019-05-21T00:39:19.868Z,25.92
2019-05-21T00:40:58.618Z,26.90
2019-05-21T00:42:05.661Z,20.08
2019-05-21T00:43:08.176Z,27.52
2019-05-21T00:44:09.241Z,27.52
2019-05-21T00:45:11.550Z,32.45
2019-05-21T00:46:12.565Z,25.45
2019-05-21T00:47:13.584Z,25.70
2019-05-21T00:48:14.604Z,26.82
2019-05-21T00:49:16.528Z,31.50
2019-05-21T00:50:17.634Z,28.95
2019-05-21T00:51:18.652Z,29.95
2019-05-21T00:52:19.684Z,34.05
2019-05-21T00:53:20.704Z,26.52
2019-05-21T00:54:21.736Z,31.35
2019-05-21T00:55:22.752Z,29.82
2019-05-21T00:56:23.790Z,27.37
2019-05-21T00:57:24.814Z,26.37
2019-05-21T00:58:25.828Z,29.15
2019-05-21T00:59:26.847Z,27.42
2019-05-21T01:00:27.867Z,29.07
2019-05-21T01:01:28.887Z,30.62
2019-05-21T01:02:29.893Z,35.60
2019-05-21T01:03:30.913Z,32.83
2019-05-21T01:04:31.932Z,29.77
2019-05-21T01:05:33.048Z,29.98
2019-05-21T01:06:34.054Z,32.25
2019-05-21T01:07:35.068Z,25.27
2019-05-21T01:08:36.073Z,27.90
2019-05-21T01:09:37.096Z,27.40
2019-05-21T01:10:38.109Z,35.03
2019-05-21T01:11:39.169Z,33.90
2019-05-21T01:12:40.244Z,28.75
2019-05-21T01:13:41.271Z,31.48
2019-05-21T01:14:42.353Z,28.00
2019-05-21T01:15:43.368Z,27.37
2019-05-21T01:16:44.389Z,24.35
2019-05-21T01:17:45.408Z,30.97
2019-05-21T01:18:46.660Z,28.47
2019-05-21T01:19:47.683Z,29.02
2019-05-21T01:20:48.959Z,29.32
2019-05-21T01:21:49.981Z,31.02
2019-05-21T01:22:50.997Z,28.20
2019-05-21T01:23:52.041Z,28.92
2019-05-21T01:24:53.061Z,32.55
2019-05-21T01:25:54.076Z,28.23
2019-05-21T01:26:55.096Z,23.60
2019-05-21T01:27:56.117Z,27.82
2019-05-21T01:28:57.125Z,28.00
2019-05-21T01:29:58.178Z,27.10
2019-05-21T01:30:59.196Z,25.12
2019-05-21T01:32:00.224Z,26.75
2019-05-21T01:33:01.228Z,26.07
2019-05-21T01:34:02.443Z,26.42
2019-05-21T01:35:16.637Z,24.43
2019-05-21T01:36:07.793Z,28.12
2019-05-21T01:37:08.808Z,20.60
2019-05-21T01:38:09.827Z,24.98
2019-05-21T01:39:10.838Z,27.73
2019-05-21T01:40:11.867Z,22.52
2019-05-21T01:41:12.970Z,27.40
2019-05-21T01:42:13.968Z,25.85
2019-05-21T01:43:14.989Z,25.50
2019-05-21T01:44:16.016Z,22.95
2019-05-21T01:45:17.032Z,22.75
2019-05-21T01:46:18.044Z,25.57
2019-05-21T01:47:19.053Z,22.07
2019-05-21T01:48:20.076Z,24.05
2019-05-21T01:49:21.084Z,21.20
2019-05-21T01:50:22.123Z,24.20
2019-05-21T01:51:23.140Z,25.88
2019-05-21T01:52:24.166Z,26.33
2019-05-21T01:53:25.172Z,23.25
2019-05-21T01:54:26.200Z,21.73
2019-05-21T01:55:27.233Z,22.67
2019-05-21T01:56:28.248Z,23.62
2019-05-21T01:57:29.251Z,21.62
2019-05-21T01:58:30.264Z,24.07
2019-05-21T01:59:31.285Z,19.92
2019-05-21T02:00:32.413Z,20.08
2019-05-21T02:01:33.428Z,21.30
2019-05-21T02:02:34.448Z,21.68
2019-05-21T02:03:35.456Z,24.45
2019-05-21T02:04:36.868Z,21.20
2019-05-21T02:05:37.887Z,22.80
2019-05-21T02:06:38.901Z,20.72
2019-05-21T02:07:39.921Z,25.00
2019-05-21T02:08:40.941Z,18.65
2019-05-21T02:09:57.104Z,19.60
2019-05-21T02:10:58.265Z,22.37
2019-05-21T02:11:59.332Z,18.75
2019-05-21T02:13:00.360Z,23.67
2019-05-21T02:14:01.374Z,21.70
2019-05-21T02:15:03.784Z,20.00
2019-05-21T02:16:04.804Z,19.57
2019-05-21T02:17:05.823Z,22.17
2019-05-21T02:18:06.832Z,18.05
2019-05-21T02:19:07.849Z,20.10
2019-05-21T02:20:09.284Z,17.75
2019-05-21T02:21:10.401Z,21.42
2019-05-21T02:22:11.408Z,18.70
2019-05-21T02:23:12.429Z,21.42
2019-05-21T02:24:13.441Z,21.62
2019-05-21T02:25:14.652Z,21.45
2019-05-21T02:26:15.680Z,17.92
2019-05-21T02:27:16.692Z,17.40
2019-05-21T02:28:17.712Z,19.90
2019-05-21T02:29:18.724Z,20.35
2019-05-21T02:30:20.140Z,18.10
2019-05-21T02:31:21.170Z,19.05
2019-05-21T02:32:22.183Z,24.10
2019-05-21T02:33:23.188Z,21.77
2019-05-21T02:34:24.208Z,17.27
2019-05-21T02:35:25.218Z,19.12
2019-05-21T02:36:26.244Z,19.50
2019-05-21T02:37:27.352Z,20.02
2019-05-21T02:38:28.360Z,20.90
2019-05-21T02:39:29.381Z,16.10
2019-05-21T02:40:30.662Z,18.23
2019-05-21T02:41:31.899Z,18.52
2019-05-21T02:42:32.997Z,15.25
2019-05-21T02:43:34.109Z,17.67
2019-05-21T02:44:35.113Z,16.45
2019-05-21T02:45:36.131Z,19.20
2019-05-21T02:46:37.452Z,16.67
2019-05-21T02:47:38.465Z,16.82
2019-05-21T02:48:39.531Z,17.45
2019-05-21T02:49:40.550Z,14.98
2019-05-21T02:50:41.560Z,16.30
2019-05-21T02:51:42.609Z,17.23
2019-05-21T02:52:43.630Z,14.68
2019-05-21T02:53:44.646Z,19.15
2019-05-21T02:54:45.658Z,20.60
2019-05-21T02:55:46.773Z,16.73
2019-05-21T02:56:47.798Z,17.75
2019-05-21T02:57:48.817Z,19.10
2019-05-21T02:58:49.825Z,17.62
2019-05-21T02:59:53.743Z,17.55
2019-05-21T03:00:56.660Z,14.23
2019-05-21T03:01:59.597Z,15.93
2019-05-21T03:03:02.505Z,14.23
2019-05-21T03:04:03.532Z,18.02
2019-05-21T03:05:05.437Z,16.40
2019-05-21T03:06:13.630Z,16.00
2019-05-21T03:07:18.313Z,12.50
2019-05-21T03:08:19.416Z,15.53
2019-05-21T03:09:20.730Z,17.20
2019-05-21T03:10:21.983Z,16.23
2019-05-21T03:11:22.985Z,16.50
2019-05-21T03:12:24.009Z,15.70
2019-05-21T03:13:25.037Z,17.00
2019-05-21T03:14:26.064Z,15.18
2019-05-21T03:15:27.079Z,16.55
2019-05-21T03:16:28.103Z,14.68
2019-05-21T03:17:29.472Z,16.77
2019-05-21T03:18:30.481Z,21.93
2019-05-21T03:19:31.494Z,15.68
2019-05-21T03:20:32.496Z,16.55
2019-05-21T03:21:33.507Z,15.25
2019-05-21T03:22:34.529Z,18.37
2019-05-21T03:23:35.543Z,16.75
2019-05-21T03:24:36.547Z,17.60
2019-05-21T03:25:37.561Z,19.82
2019-05-21T03:26:38.577Z,14.93
2019-05-21T03:27:39.598Z,18.02
2019-05-21T03:28:40.607Z,17.17
2019-05-21T03:29:41.633Z,15.38
2019-05-21T03:30:42.697Z,18.85
2019-05-21T03:31:43.699Z,18.77
2019-05-21T03:32:44.739Z,18.35
2019-05-21T03:33:45.746Z,14.70
2019-05-21T03:34:46.766Z,16.10
2019-05-21T03:35:47.813Z,19.55
2019-05-21T03:36:48.927Z,22.52
2019-05-21T03:37:49.944Z,17.02
2019-05-21T03:38:50.961Z,19.15
2019-05-21T03:39:51.973Z,17.55
2019-05-21T03:40:52.985Z,20.95
2019-05-21T03:41:54.177Z,18.67
2019-05-21T03:42:55.197Z,18.40
2019-05-21T03:43:56.204Z,15.10
2019-05-21T03:45:00.413Z,17.50
2019-05-21T03:46:00.269Z,18.57
2019-05-21T03:47:01.409Z,17.40
2019-05-21T03:48:02.601Z,14.80
2019-05-21T03:49:03.645Z,16.12
2019-05-21T03:50:05.113Z,17.92
2019-05-21T03:51:06.243Z,18.12
2019-05-21T03:52:07.265Z,16.27
2019-05-21T03:53:08.300Z,17.80
2019-05-21T03:54:09.317Z,18.30
2019-05-21T03:55:10.336Z,16.42
2019-05-21T03:56:11.605Z,14.68
2019-05-21T03:57:12.677Z,14.70
2019-05-21T03:58:13.681Z,14.55
2019-05-21T03:59:14.706Z,17.17
2019-05-21T04:00:16.532Z,17.55
2019-05-21T04:01:17.565Z,20.70
2019-05-21T04:02:18.601Z,19.55
2019-05-21T04:03:19.617Z,19.10
2019-05-21T04:04:20.624Z,16.75
2019-05-21T04:05:23.348Z,14.58
2019-05-21T04:06:28.558Z,16.17
2019-05-21T04:07:27.383Z,18.40
2019-05-21T04:08:28.399Z,16.05
2019-05-21T04:09:29.413Z,18.70
2019-05-21T04:10:30.432Z,21.48
2019-05-21T04:11:31.462Z,16.77
2019-05-21T04:12:32.482Z,17.12
2019-05-21T04:13:33.516Z,18.05
2019-05-21T04:14:36.428Z,19.27
2019-05-21T04:15:47.624Z,19.32
2019-05-21T04:16:56.789Z,18.30
2019-05-21T04:18:02.394Z,18.55
2019-05-21T04:19:10.969Z,13.55
2019-05-21T04:20:11.994Z,17.27
2019-05-21T04:21:13.069Z,17.07
2019-05-21T04:22:15.187Z,15.88
2019-05-21T04:23:16.213Z,15.08
2019-05-21T04:24:17.225Z,15.98
2019-05-21T04:25:18.741Z,16.37
2019-05-21T04:26:19.761Z,15.93
2019-05-21T04:27:20.821Z,16.65
2019-05-21T04:28:21.849Z,15.08
2019-05-21T04:29:22.878Z,15.90
2019-05-21T04:30:23.913Z,13.50
2019-05-21T04:31:24.941Z,15.15
2019-05-21T04:32:25.981Z,19.07
2019-05-21T04:33:27.013Z,17.02
2019-05-21T04:34:28.033Z,15.63
2019-05-21T04:35:29.041Z,16.40
2019-05-21T04:36:30.058Z,16.37
2019-05-21T04:37:31.064Z,15.55
2019-05-21T04:38:32.091Z,15.18
2019-05-21T04:39:33.104Z,16.82
2019-05-21T04:40:34.123Z,15.05
2019-05-21T04:41:35.225Z,14.80
2019-05-21T04:42:36.237Z,15.08
2019-05-21T04:43:37.281Z,19.67
2019-05-21T04:44:38.297Z,16.05
2019-05-21T04:45:39.307Z,18.10
2019-05-21T04:46:40.341Z,17.52
2019-05-21T04:47:41.540Z,17.60
2019-05-21T04:48:42.570Z,15.48
2019-05-21T04:49:43.583Z,19.62
2019-05-21T04:50:44.596Z,11.85
2019-05-21T04:51:45.722Z,16.77
2019-05-21T04:52:46.747Z,16.27
2019-05-21T04:53:47.855Z,15.88
2019-05-21T04:54:48.868Z,13.98
2019-05-21T04:55:49.880Z,14.60
2019-05-21T04:56:50.901Z,13.68
2019-05-21T04:57:51.907Z,15.58
2019-05-21T04:58:52.936Z,15.25
2019-05-21T04:59:53.954Z,16.00
2019-05-21T05:00:54.996Z,15.43
2019-05-21T05:01:56.094Z,14.28
2019-05-21T05:02:57.104Z,16.62
2019-05-21T05:03:58.144Z,15.63
2019-05-21T05:04:59.161Z,15.60
2019-05-21T05:06:00.439Z,13.83
2019-05-21T05:07:01.448Z,14.87
2019-05-21T05:08:02.472Z,15.18
2019-05-21T05:09:04.699Z,13.83
2019-05-21T05:10:06.676Z,13.53
2019-05-21T05:11:07.689Z,16.90
2019-05-21T05:12:08.704Z,12.03
2019-05-21T05:13:09.716Z,14.33
2019-05-21T05:14:10.738Z,11.97
2019-05-21T05:15:11.850Z,13.20
2019-05-21T05:16:12.848Z,14.13
2019-05-21T05:17:13.870Z,15.95
2019-05-21T05:18:14.976Z,13.22
2019-05-21T05:19:16.001Z,14.87
2019-05-21T05:20:17.025Z,12.70
2019-05-21T05:21:18.039Z,11.15
2019-05-21T05:22:19.048Z,14.47
2019-05-21T05:23:20.060Z,13.05
2019-05-21T05:24:21.097Z,13.80
2019-05-21T05:25:22.105Z,10.32
2019-05-21T05:26:23.113Z,14.75
2019-05-21T05:27:24.126Z,13.95
2019-05-21T05:28:25.136Z,12.98
2019-05-21T05:29:26.165Z,12.45
2019-05-21T05:30:27.206Z,13.83
2019-05-21T05:31:28.224Z,12.45
2019-05-21T05:32:29.254Z,13.62
2019-05-21T05:33:30.280Z,13.65
2019-05-21T05:34:31.355Z,16.07
2019-05-21T05:35:32.432Z,10.70
2019-05-21T05:36:33.450Z,12.30
2019-05-21T05:37:43.221Z,10.82
2019-05-21T05:38:37.379Z,12.68
2019-05-21T05:39:38.393Z,11.08
2019-05-21T05:40:39.404Z,11.70
2019-05-21T05:41:40.426Z,12.63
2019-05-21T05:42:41.432Z,11.45
2019-05-21T05:43:42.459Z,11.83
2019-05-21T05:44:43.468Z,11.97
2019-05-21T05:45:44.480Z,12.28
2019-05-21T05:46:45.494Z,13.25
2019-05-21T05:47:46.516Z,8.85
2019-05-21T05:48:49.460Z,11.70
2019-05-21T05:49:52.665Z,13.32
2019-05-21T05:51:04.624Z,12.05
2019-05-21T05:52:05.678Z,13.90
2019-05-21T05:53:06.787Z,11.65
2019-05-21T05:54:07.892Z,12.28
2019-05-21T05:55:09.025Z,10.53
2019-05-21T05:56:10.046Z,11.25
2019-05-21T05:57:11.056Z,11.25
2019-05-21T05:58:12.073Z,12.70
2019-05-21T05:59:14.499Z,9.28
2019-05-21T06:00:16.983Z,11.00
2019-05-21T06:01:17.990Z,10.65
2019-05-21T06:02:19.141Z,9.65
2019-05-21T06:03:20.161Z,10.08
2019-05-21T06:04:21.184Z,10.35
2019-05-21T06:05:22.445Z,9.33
2019-05-21T06:06:23.473Z,9.93
2019-05-21T06:07:24.480Z,9.35
2019-05-21T06:08:25.489Z,12.75
2019-05-21T06:09:26.521Z,9.95
2019-05-21T06:10:27.541Z,8.63
2019-05-21T06:11:28.552Z,10.40
2019-05-21T06:12:29.564Z,10.48
2019-05-21T06:13:30.592Z,9.55
2019-05-21T06:14:31.711Z,8.35
2019-05-21T06:15:32.732Z,8.33
2019-05-21T06:16:33.746Z,8.18
2019-05-21T06:17:34.788Z,8.63
2019-05-21T06:18:35.905Z,7.42
2019-05-21T06:19:36.952Z,9.73
2019-05-21T06:20:37.977Z,7.15
2019-05-21T06:21:38.995Z,9.93
2019-05-21T06:22:40.019Z,6.33
2019-05-21T06:23:41.025Z,9.15
2019-05-21T06:24:42.385Z,7.05
2019-05-21T06:25:43.425Z,7.75
2019-05-21T06:26:44.442Z,9.70
2019-05-21T06:27:45.460Z,7.62
2019-05-21T06:28:46.476Z,7.17
2019-05-21T06:29:47.496Z,9.73
2019-05-21T06:30:48.528Z,7.17
2019-05-21T06:31:49.555Z,8.75
2019-05-21T06:32:50.568Z,6.67
2019-05-21T06:33:51.615Z,8.15
2019-05-21T06:34:52.725Z,6.33
2019-05-21T06:35:53.728Z,8.03
2019-05-21T06:36:54.753Z,7.58
2019-05-21T06:37:55.761Z,7.80
2019-05-21T06:38:56.771Z,6.12
2019-05-21T06:39:57.796Z,7.95
2019-05-21T06:40:58.808Z,7.97
2019-05-21T06:41:59.837Z,8.53
2019-05-21T06:43:00.851Z,8.50
2019-05-21T06:44:02.071Z,6.97
2019-05-21T06:45:07.001Z,9.53
2019-05-21T06:46:07.996Z,9.05
2019-05-21T06:47:09.024Z,8.75
2019-05-21T06:48:10.084Z,8.93
2019-05-21T06:49:11.188Z,6.85
2019-05-21T06:50:12.528Z,8.30
2019-05-21T06:51:13.556Z,6.40
2019-05-21T06:52:14.568Z,7.05
2019-05-21T06:53:15.600Z,7.37
2019-05-21T06:54:16.624Z,8.10
2019-05-21T06:55:17.633Z,6.92
2019-05-21T06:56:18.640Z,7.28
2019-05-21T06:57:19.661Z,8.80
2019-05-21T06:58:20.772Z,6.92
2019-05-21T06:59:21.794Z,8.70
2019-05-21T07:00:22.924Z,6.17
2019-05-21T07:01:28.590Z,8.88
2019-05-21T07:02:26.948Z,9.35
2019-05-21T07:03:27.966Z,8.70
2019-05-21T07:04:29.002Z,5.40
2019-05-21T07:05:30.083Z,8.70
2019-05-21T07:06:31.084Z,7.40
2019-05-21T07:07:32.150Z,6.40
2019-05-21T07:08:35.075Z,6.83
2019-05-21T07:09:36.101Z,8.40
2019-05-21T07:10:37.168Z,6.62
2019-05-21T07:11:38.182Z,7.60
2019-05-21T07:12:39.213Z,6.15
2019-05-21T07:13:40.259Z,8.35
2019-05-21T07:14:41.273Z,9.35
2019-05-21T07:15:42.361Z,6.25
2019-05-21T07:16:43.456Z,6.40
2019-05-21T07:17:44.467Z,6.33
2019-05-21T07:18:45.476Z,8.75
2019-05-21T07:19:46.500Z,7.75
2019-05-21T07:20:47.563Z,8.80
2019-05-21T07:21:48.663Z,7.70
2019-05-21T07:22:49.822Z,7.10
2019-05-21T07:23:50.967Z,6.15
2019-05-21T07:24:52.014Z,7.58
2019-05-21T07:25:53.133Z,8.20
2019-05-21T07:26:54.483Z,7.72
2019-05-21T07:27:55.589Z,5.80
2019-05-21T07:28:57.042Z,6.85
2019-05-21T07:29:58.723Z,7.53
2019-05-21T07:30:59.961Z,6.12
2019-05-21T07:32:01.064Z,9.75
2019-05-21T07:33:02.328Z,7.60
2019-05-21T07:34:03.732Z,7.62
2019-05-21T07:35:05.075Z,7.53
2019-05-21T07:36:06.092Z,9.23
2019-05-21T07:37:07.402Z,7.22
2019-05-21T07:38:08.563Z,6.60
2019-05-21T07:39:09.681Z,8.70
2019-05-21T07:40:11.940Z,6.25
2019-05-21T07:41:13.277Z,9.20
2019-05-21T07:42:14.312Z,6.55
2019-05-21T07:43:15.354Z,8.73
2019-05-21T07:44:16.457Z,7.22
2019-05-21T07:45:17.492Z,7.20
2019-05-21T07:46:18.517Z,10.05
2019-05-21T07:47:19.716Z,5.50
2019-05-21T07:48:21.065Z,8.68
2019-05-21T07:49:22.412Z,8.60
2019-05-21T07:50:23.552Z,6.47
2019-05-21T07:51:24.878Z,7.65
2019-05-21T07:52:25.901Z,7.53
2019-05-21T07:53:26.932Z,9.08
2019-05-21T07:54:28.284Z,5.92
2019-05-21T07:55:29.409Z,9.00
2019-05-21T07:56:30.421Z,7.10
2019-05-21T07:57:31.430Z,8.03
2019-05-21T07:58:32.444Z,6.05
2019-05-21T07:59:33.464Z,7.08
2019-05-21T08:00:34.510Z,6.60
2019-05-21T08:01:35.529Z,7.70
2019-05-21T08:02:36.533Z,9.45
2019-05-21T08:03:37.575Z,6.25
2019-05-21T08:04:38.580Z,7.67
2019-05-21T08:05:39.638Z,6.33
2019-05-21T08:06:40.743Z,7.25
2019-05-21T08:07:41.779Z,7.87
2019-05-21T08:08:42.801Z,9.53
2019-05-21T08:09:43.801Z,6.90
2019-05-21T08:10:44.832Z,9.85
2019-05-21T08:11:47.013Z,6.67
2019-05-21T08:12:48.589Z,7.97
2019-05-21T08:13:49.601Z,6.58
2019-05-21T08:14:50.680Z,6.85
2019-05-21T08:15:51.838Z,7.75
2019-05-21T08:16:52.856Z,7.33
2019-05-21T08:17:53.880Z,8.10
2019-05-21T08:18:55.228Z,6.65
2019-05-21T08:20:08.131Z,6.55
2019-05-21T08:20:59.167Z,7.70
2019-05-21T08:22:00.186Z,5.72
2019-05-21T08:23:01.213Z,8.03
2019-05-21T08:24:02.383Z,7.42
2019-05-21T08:25:05.460Z,8.98
2019-05-21T08:26:06.499Z,8.20
2019-05-21T08:27:07.538Z,8.20
2019-05-21T08:28:08.724Z,6.45
2019-05-21T08:29:11.036Z,6.95
2019-05-21T08:30:13.717Z,8.40
2019-05-21T08:31:14.745Z,7.62
2019-05-21T08:32:15.785Z,7.85
2019-05-21T08:33:16.826Z,7.17
2019-05-21T08:34:17.861Z,6.45
2019-05-21T08:35:19.177Z,6.97
2019-05-21T08:36:20.184Z,6.70
2019-05-21T08:37:21.208Z,7.95
2019-05-21T08:38:22.220Z,6.97
2019-05-21T08:39:28.947Z,7.30
2019-05-21T08:40:26.436Z,7.62
2019-05-21T08:41:27.442Z,5.75
2019-05-21T08:42:28.554Z,9.95
2019-05-21T08:43:29.576Z,6.33
2019-05-21T08:44:30.635Z,7.80
2019-05-21T08:45:31.640Z,6.47
2019-05-21T08:46:32.680Z,8.15
2019-05-21T08:47:33.731Z,6.35
2019-05-21T08:48:34.749Z,7.80
2019-05-21T08:49:35.915Z,5.97
2019-05-21T08:50:37.088Z,9.15
2019-05-21T08:51:38.117Z,7.05
2019-05-21T08:52:39.253Z,7.62
2019-05-21T08:53:40.349Z,7.50
2019-05-21T08:54:50.699Z,10.45
2019-05-21T08:55:51.904Z,7.60
2019-05-21T08:56:52.921Z,6.70
2019-05-21T08:58:06.641Z,8.60
2019-05-21T08:58:56.856Z,8.25
2019-05-21T08:59:57.883Z,6.83
2019-05-21T09:00:59.051Z,9.75
2019-05-21T09:02:00.136Z,7.20
2019-05-21T09:03:01.249Z,8.05
2019-05-21T09:04:02.581Z,8.20
2019-05-21T09:05:05.397Z,9.00
2019-05-21T09:06:06.422Z,7.75
2019-05-21T09:07:07.582Z,8.48
2019-05-21T09:08:08.608Z,6.95
2019-05-21T09:09:09.954Z,8.18
2019-05-21T09:10:11.966Z,6.70
2019-05-21T09:11:12.966Z,6.53
2019-05-21T09:12:14.120Z,9.23
2019-05-21T09:13:17.902Z,5.97
2019-05-21T09:14:18.367Z,6.42
2019-05-21T09:15:19.794Z,7.45
2019-05-21T09:16:20.824Z,8.93
2019-05-21T09:17:21.912Z,7.62
2019-05-21T09:18:22.982Z,9.70
2019-05-21T09:19:24.022Z,8.58
2019-05-21T09:20:25.261Z,8.60
2019-05-21T09:21:26.396Z,7.25
2019-05-21T09:22:27.499Z,8.50
2019-05-21T09:23:28.570Z,7.10
2019-05-21T09:24:29.674Z,8.28
2019-05-21T09:25:30.681Z,9.23
2019-05-21T09:26:31.693Z,6.40
2019-05-21T09:27:33.712Z,9.40
2019-05-21T09:28:34.740Z,8.68
2019-05-21T09:29:35.756Z,7.87
2019-05-21T09:30:36.782Z,9.15
2019-05-21T09:31:37.917Z,8.95
2019-05-21T09:32:38.941Z,7.53
2019-05-21T09:33:39.949Z,7.90
2019-05-21T09:34:48.796Z,9.13
2019-05-21T09:35:44.388Z,9.70
2019-05-21T09:36:45.474Z,7.85
2019-05-21T09:37:46.546Z,7.95
2019-05-21T09:38:47.561Z,8.33
2019-05-21T09:39:48.576Z,8.70
2019-05-21T09:40:50.017Z,10.63
2019-05-21T09:41:51.029Z,8.00
2019-05-21T09:42:52.157Z,7.87
2019-05-21T09:43:53.435Z,7.40
2019-05-21T09:44:54.578Z,8.10
2019-05-21T09:45:55.607Z,9.90
2019-05-21T09:46:56.625Z,6.40
2019-05-21T09:47:57.648Z,9.15
2019-05-21T09:48:58.681Z,7.00
2019-05-21T09:49:59.735Z,9.88
2019-05-21T09:51:00.836Z,6.05
2019-05-21T09:52:01.976Z,9.13
2019-05-21T09:53:03.186Z,8.85
2019-05-21T09:54:04.193Z,7.17
2019-05-21T09:55:06.108Z,9.20
2019-05-21T09:56:25.692Z,8.25
2019-05-21T09:57:32.564Z,9.48
2019-05-21T09:58:35.496Z,7.42
2019-05-21T09:59:53.608Z,7.35
2019-05-21T10:01:08.875Z,6.05
2019-05-21T10:02:11.776Z,8.53
2019-05-21T10:03:17.253Z,8.38
2019-05-21T10:04:18.270Z,8.00
2019-05-21T10:05:19.386Z,7.62
2019-05-21T10:06:20.724Z,9.55
2019-05-21T10:07:37.935Z,8.78
2019-05-21T10:08:24.656Z,7.28
2019-05-21T10:09:25.674Z,9.03
2019-05-21T10:10:26.800Z,8.63
2019-05-21T10:11:28.132Z,10.15
2019-05-21T10:12:29.160Z,9.85
2019-05-21T10:13:30.196Z,8.93
2019-05-21T10:14:34.137Z,9.38
2019-05-21T10:15:34.176Z,8.05
2019-05-21T10:16:35.386Z,8.13
2019-05-21T10:17:36.648Z,8.60
2019-05-21T10:18:44.059Z,7.70
2019-05-21T10:19:45.276Z,7.58
2019-05-21T10:21:49.092Z,9.83
2019-05-21T10:22:50.103Z,11.15
2019-05-21T10:23:51.210Z,9.40
2019-05-21T10:24:52.326Z,9.30
2019-05-21T10:25:53.341Z,8.25
2019-05-21T10:26:54.387Z,9.10
2019-05-21T10:27:55.404Z,8.78
2019-05-21T10:28:56.533Z,10.05
2019-05-21T10:29:57.585Z,9.48
2019-05-21T10:30:58.640Z,9.20
2019-05-21T10:31:59.671Z,8.90
2019-05-21T10:33:00.701Z,9.50
2019-05-21T10:34:01.719Z,8.63
2019-05-21T10:35:05.307Z,7.75
2019-05-21T10:36:06.743Z,9.40
2019-05-21T10:37:07.764Z,9.75
2019-05-21T10:38:08.897Z,6.95
2019-05-21T10:39:10.258Z,8.65
2019-05-21T10:40:11.911Z,8.35
2019-05-21T10:41:13.055Z,10.20
2019-05-21T10:42:14.150Z,8.43
2019-05-21T10:43:15.315Z,8.48
2019-05-21T10:44:16.476Z,9.63
2019-05-21T10:45:17.602Z,9.28
2019-05-21T10:46:18.612Z,10.00
2019-05-21T10:47:19.639Z,8.08
2019-05-21T10:48:20.680Z,9.75
2019-05-21T10:49:21.722Z,7.80
2019-05-21T10:50:22.743Z,8.85
2019-05-21T10:51:23.857Z,6.55
2019-05-21T10:52:24.872Z,11.20
2019-05-21T10:53:25.997Z,8.05
2019-05-21T10:54:27.018Z,10.23
2019-05-21T10:55:28.027Z,7.72
2019-05-21T10:56:38.554Z,8.38
2019-05-21T10:57:31.962Z,9.45
2019-05-21T10:58:32.968Z,9.18
2019-05-21T10:59:34.110Z,7.60
2019-05-21T11:00:35.099Z,7.47
2019-05-21T11:01:40.843Z,10.03
2019-05-21T11:02:43.821Z,7.00
2019-05-21T11:04:01.856Z,8.95
2019-05-21T11:05:13.313Z,9.80
2019-05-21T11:06:15.575Z,8.95
2019-05-21T11:07:17.844Z,6.80
2019-05-21T11:08:23.832Z,9.58
2019-05-21T11:09:22.483Z,6.67
2019-05-21T11:10:23.489Z,7.45
2019-05-21T11:11:24.504Z,9.88
2019-05-21T11:12:25.529Z,8.90
2019-05-21T11:13:26.559Z,8.85
2019-05-21T11:14:27.686Z,8.10
2019-05-21T11:15:28.805Z,8.53
2019-05-21T11:16:29.809Z,6.42
2019-05-21T11:17:30.824Z,9.98
2019-05-21T11:18:31.837Z,7.83
2019-05-21T11:19:33.074Z,10.60
2019-05-21T11:20:34.090Z,8.85
2019-05-21T11:21:35.105Z,9.10
2019-05-21T11:22:36.122Z,12.33
2019-05-21T11:23:37.164Z,9.40
2019-05-21T11:24:38.185Z,9.90
2019-05-21T11:25:39.200Z,11.20
2019-05-21T11:26:40.237Z,9.43
2019-05-21T11:27:41.248Z,9.15
2019-05-21T11:28:42.361Z,9.10
2019-05-21T11:29:43.380Z,7.47
2019-05-21T11:30:44.401Z,11.65
2019-05-21T11:31:56.566Z,11.05
2019-05-21T11:32:48.336Z,9.75
2019-05-21T11:33:49.354Z,8.43
2019-05-21T11:34:50.733Z,9.80
2019-05-21T11:35:51.887Z,8.58
2019-05-21T11:36:52.975Z,7.20
2019-05-21T11:37:54.058Z,11.00
2019-05-21T11:38:55.074Z,7.87
2019-05-21T11:39:56.167Z,10.60
2019-05-21T11:40:57.315Z,8.83
2019-05-21T11:41:58.395Z,8.23
2019-05-21T11:42:59.412Z,9.03
2019-05-21T11:44:00.429Z,9.25
2019-05-21T11:45:02.253Z,9.48
2019-05-21T11:46:03.414Z,7.92
2019-05-21T11:47:04.488Z,9.58
2019-05-21T11:48:05.610Z,9.40
2019-05-21T11:49:06.871Z,11.57
2019-05-21T11:50:08.799Z,9.35
2019-05-21T11:51:12.683Z,9.95
2019-05-21T11:52:12.719Z,9.80
2019-05-21T11:53:13.741Z,11.43
2019-05-21T11:54:14.747Z,9.63
2019-05-21T11:55:15.788Z,9.65
2019-05-21T11:56:16.803Z,8.68
2019-05-21T11:57:17.854Z,13.03
2019-05-21T11:58:19.109Z,8.75
2019-05-21T11:59:20.754Z,8.38
2019-05-21T12:00:23.749Z,8.55
2019-05-21T12:01:24.775Z,10.35
2019-05-21T12:02:25.790Z,10.45
2019-05-21T12:03:26.888Z,10.68
2019-05-21T12:04:27.898Z,8.03
2019-05-21T12:05:29.026Z,10.70
2019-05-21T12:06:30.033Z,9.68
2019-05-21T12:07:31.052Z,8.98
2019-05-21T12:08:32.066Z,9.93
2019-05-21T12:09:33.173Z,9.65
2019-05-21T12:10:34.193Z,9.30
2019-05-21T12:11:35.324Z,8.30
2019-05-21T12:12:36.427Z,12.18
2019-05-21T12:13:37.442Z,8.60
2019-05-21T12:14:38.453Z,8.70
2019-05-21T12:15:39.482Z,7.95
2019-05-21T12:16:40.509Z,9.40
2019-05-21T12:17:41.525Z,6.85
2019-05-21T12:18:42.549Z,8.05
2019-05-21T12:19:43.557Z,7.67
2019-05-21T12:20:44.681Z,9.18
2019-05-21T12:21:45.694Z,7.50
2019-05-21T12:22:46.721Z,11.78
2019-05-21T12:23:48.087Z,10.70
2019-05-21T12:24:51.015Z,9.90
2019-05-21T12:25:52.034Z,9.33
2019-05-21T12:26:53.487Z,9.50
2019-05-21T12:27:54.590Z,9.68
2019-05-21T12:28:55.727Z,9.80
2019-05-21T12:29:56.740Z,10.32
2019-05-21T12:30:59.824Z,8.30
2019-05-21T12:32:02.975Z,7.45
2019-05-21T12:33:04.226Z,8.55
2019-05-21T12:34:05.250Z,10.53
2019-05-21T12:35:06.428Z,7.87
2019-05-21T12:36:07.643Z,7.53
2019-05-21T12:37:08.667Z,9.75
2019-05-21T12:38:09.949Z,9.38
2019-05-21T12:39:14.453Z,8.83
2019-05-21T12:40:14.597Z,8.93
2019-05-21T12:41:15.885Z,6.60
2019-05-21T12:42:17.946Z,9.75
2019-05-21T12:43:20.261Z,5.70
2019-05-21T12:44:24.295Z,7.40
2019-05-21T12:45:25.440Z,7.65
2019-05-21T12:46:26.534Z,10.38
2019-05-21T12:47:27.543Z,7.92
2019-05-21T12:48:28.582Z,9.55
2019-05-21T12:49:29.605Z,8.35
2019-05-21T12:50:30.670Z,8.75
2019-05-21T12:51:31.676Z,11.25
2019-05-21T12:52:33.952Z,10.75
2019-05-21T12:53:35.214Z,9.18
2019-05-21T12:54:36.307Z,8.30
2019-05-21T12:55:37.327Z,8.95
2019-05-21T12:56:40.813Z,6.80
2019-05-21T12:57:41.556Z,6.80
2019-05-21T12:58:42.602Z,8.95
2019-05-21T12:59:43.601Z,8.25
2019-05-21T13:00:44.782Z,8.88
2019-05-21T13:01:45.792Z,6.65
2019-05-21T13:02:46.857Z,8.78
2019-05-21T13:03:47.936Z,8.65
2019-05-21T13:04:48.955Z,8.03
2019-05-21T13:05:49.972Z,8.05
2019-05-21T13:06:51.104Z,10.08
2019-05-21T13:07:52.111Z,7.12
2019-05-21T13:08:53.216Z,10.45
2019-05-21T13:09:54.207Z,9.03
2019-05-21T13:10:55.326Z,9.95
2019-05-21T13:11:56.336Z,8.70
2019-05-21T13:12:57.360Z,10.03
2019-05-21T13:13:58.379Z,9.40
2019-05-21T13:14:59.423Z,6.95
2019-05-21T13:16:00.444Z,9.98
2019-05-21T13:17:01.462Z,9.28
2019-05-21T13:18:03.275Z,10.30
2019-05-21T13:19:04.335Z,8.50
2019-05-21T13:20:07.322Z,7.97
2019-05-21T13:21:08.703Z,7.83
2019-05-21T13:22:09.711Z,9.05
2019-05-21T13:23:10.752Z,7.83
2019-05-21T13:24:11.849Z,6.95
2019-05-21T13:25:12.860Z,6.60
2019-05-21T13:26:13.976Z,6.40
2019-05-21T13:27:15.002Z,6.60
2019-05-21T13:28:16.027Z,5.55
2019-05-21T13:29:17.030Z,5.83
2019-05-21T13:30:18.342Z,6.10
2019-05-21T13:31:19.393Z,8.70